Station: Edinburgh

  Atmospheric Gas Attenuation - ITU Rec 676-11   --------------- db/100km ---------------
Date Time Temp RH % AH g/m3 Dew Point Wind Direction Speed kph Gust kph Barometer mB Rainfall Since 9am 24GHz 47GHz 76GHz 122GHz 134GHz 241GHz
16 19:20 19.9 53 9.11 10 30 35 1018.6 0 20.4 25.2 39.0 102.4 97.7 336.8
16 19:10 19.8 52 8.88 9.7 33 39 1018.5 0 19.9 24.8 38.2 100.2 95.0 327.3
16 19:00 20 52 8.99 9.9 35 44 1018.4 0 20.1 24.9 38.5 101.0 96.1 331.2
16 18:50 20.1 51 8.86 9.7 37 41 1018.3 0 19.8 24.7 38.0 99.6 94.4 325.1
16 18:40 20.2 50 8.74 9.5 33 41 1018.3 0 19.6 24.5 37.5 98.3 92.8 319.6
16 18:30 20.2 50 8.74 9.5 37 46 1018.2 0 19.6 24.5 37.5 98.3 92.8 319.5
16 18:20 20.8 50 9.05 10 32 35 1018.1 0 20.2 24.8 38.3 100.6 95.8 330.4
16 18:10 20.5 49 8.72 9.4 33 37 1018.1 0 19.5 24.4 37.3 97.7 92.2 317.5
16 18:00 20.4 49 8.67 9.3 37 44 1018.2 0 19.4 24.3 37.1 97.3 91.7 315.8
16 17:50 20.1 50 8.69 9.4 39 44 1018.2 0 19.5 24.5 37.3 97.9 92.3 317.8
16 17:40 20.1 49 8.52 9.1 39 46 1018.3 0 19.1 24.2 36.7 96.2 90.2 310.6
16 17:30 20.4 50 8.84 9.6 43 50 1018.2 0 19.8 24.6 37.7 99.0 93.8 323.0
16 17:20 20.7 48 8.64 9.3 43 46 1018.2 0 19.3 24.2 36.9 96.7 91.0 313.3
16 17:10 20.5 48 8.54 9.1 44 52 1018.2 0 19.1 24.1 36.6 95.9 90.0 309.9
16 17:00 20.8 45 8.15 8.4 41 52 1018.4 0 18.3 23.5 35.1 91.8 85.0 292.4
16 16:50 20.7 46 8.28 8.7 41 50 1018.4 0 18.6 23.7 35.6 93.2 86.7 298.2
16 16:40 20.8 44 7.97 8.1 44 48 1018.4 0 17.9 23.2 34.4 90.1 82.9 285.0
16 16:30 21.3 42 7.83 7.9 41 50 1018.5 0 17.6 22.9 33.7 88.2 80.7 277.5
16 16:20 21.3 43 8.01 8.2 41 46 1018.6 0 18.0 23.2 34.3 89.9 82.9 284.9
16 16:10 21.3 43 8.01 8.2 41 46 1018.7 0 18.0 23.2 34.4 89.9 82.9 284.9
16 16:00 21.8 42 8.06 8.3 39 52 1018.8 0 18.1 23.1 34.3 89.9 82.9 285.3
16 15:50 21.5 41 7.73 7.7 43 50 1018.9 0 17.4 22.7 33.3 87.1 79.4 272.9
16 15:40 20.9 44 8.01 8.2 48 54 1018.9 0 18.0 23.3 34.5 90.4 83.3 286.4
16 15:30 21.2 43 7.97 8.1 41 52 1019 0 17.9 23.1 34.3 89.7 82.5 283.7
16 15:20 21.3 42 7.83 7.9 44 54 1019.2 0 17.6 22.9 33.7 88.3 80.8 277.7
16 15:10 21.2 42 7.78 7.8 43 48 1019.3 0 17.5 22.9 33.6 87.9 80.3 276.0
16 15:00 21.1 40 7.37 7 43 56 1019.4 0 16.7 22.3 32.2 84.2 75.7 259.7
16 14:50 20.9 40 7.28 6.8 43 48 1019.4 0 16.5 22.2 32.0 83.6 74.8 256.7
16 14:40 21.7 39 7.44 7.2 43 46 1019.5 0 16.8 22.3 32.2 84.2 75.9 260.6
16 14:30 22 40 7.76 7.8 39 52 1019.7 0 17.4 22.7 33.2 86.9 79.3 272.6
16 14:20 21 41 7.51 7.3 43 46 1019.6 0 17.0 22.5 32.7 85.6 77.4 265.7
16 14:10 21.7 41 7.82 7.9 37 41 1019.7 0 17.6 22.8 33.6 87.8 80.3 276.0
16 14:00 21 40 7.33 6.9 33 46 1019.7 0 16.6 22.3 32.1 83.9 75.3 258.5
16 13:50 20.8 40 7.24 6.7 35 39 1019.9 0 16.4 22.2 31.9 83.3 74.5 255.5
16 13:40 21.8 38 7.29 6.9 33 39 1019.9 0 16.5 22.1 31.7 82.8 74.2 254.4
16 13:30 21.6 37 7.02 6.3 32 41 1020 0 15.9 21.7 30.8 80.5 71.3 244.3
16 13:20 21.6 39 7.4 7.1 22 30 1020.1 0 16.7 22.3 32.1 84.0 75.6 259.5
16 13:10 21.9 40 7.72 7.7 30 33 1020 0 17.4 22.6 33.1 86.7 79.0 271.4
16 13:00 21.1 39 7.19 6.6 28 39 1020.1 0 16.3 22.1 31.6 82.6 73.7 252.6
16 12:50 20.5 39 6.94 6.1 32 37 1020.2 0 15.8 21.9 31.0 80.9 71.4 244.5
16 12:40 21.4 37 6.94 6.1 30 37 1020.3 0 15.7 21.7 30.6 80.0 70.6 241.8
16 12:30 20.1 37 6.43 5 26 37 1020.5 0 14.7 21.3 29.4 76.6 65.9 225.4
16 12:20 20.4 36 6.37 4.8 26 33 1020.5 0 14.6 21.1 29.1 75.8 65.0 222.2
16 12:10 20 36 6.22 4.5 13 19 1020.7 0 14.3 21.0 28.7 74.8 63.7 217.4
16 12:00 19.8 37 6.32 4.7 24 35 1020.7 0 14.5 21.2 29.1 75.9 65.0 221.9
16 11:50 19.9 36 6.18 4.4 19 24 1020.7 0 14.2 21.0 28.6 74.5 63.3 216.1
16 11:40 19.4 35 5.84 3.6 7 13 1020.8 0 13.5 20.6 27.6 71.9 59.9 204.1
16 11:30 19.2 35 5.77 3.4 17 32 1020.9 0 13.4 20.6 27.5 71.5 59.3 201.9
16 11:20 19.5 36 6.04 4 13 17 1021 0 13.9 20.9 28.3 73.7 62.1 211.7
16 11:10 19.4 36 6.01 4 20 28 1021.1 0 13.9 20.9 28.2 73.5 61.8 210.8
16 11:00 19.3 36 5.97 3.9 15 33 1021 0 13.8 20.8 28.1 73.2 61.4 209.5
16 10:50 18.4 37 5.82 3.5 15 20 1021.1 0 13.5 20.8 27.9 72.7 60.4 205.9
16 10:40 18.8 39 6.28 4.6 11 15 1021.1 0 14.5 21.4 29.4 76.5 65.3 223.1
16 10:30 18 39 5.99 3.9 17 30 1021 0 13.9 21.2 28.6 74.6 62.7 213.6
16 10:20 18.1 41 6.33 4.7 11 15 1021.1 0 14.6 21.6 29.8 77.6 66.5 227.0
16 10:10 17.3 41 6.04 3.9 17 20 1021.1 0 14.0 21.4 29.1 75.7 63.8 217.5
16 10:00 17.4 42 6.22 4.4 19 46 1021.2 0 14.4 21.6 29.7 77.3 65.8 224.5
16 09:50 16.7 43 6.11 4.1 13 15 1021.3 0 14.2 21.6 29.5 76.9 65.1 222.0
16 09:40 17.4 41 6.08 4 26 32 1021.3 0 14.1 21.4 29.2 76.0 64.2 218.9
16 09:30 17.6 41 6.15 4.2 17 24 1021.3 0 14.2 21.5 29.3 76.4 64.8 221.2
16 09:20 16.8 43 6.15 4.2 13 20 1021.3 0 14.3 21.7 29.6 77.2 65.5 223.3
16 09:10 17 43 6.22 4.3 20 26 1021.3 0 14.4 21.7 29.8 77.7 66.1 225.6
16 09:00 16.5 44 6.18 4.2 20 30 1021.2 0 14.3 21.8 29.8 77.7 66.1 225.4
16 08:50 16.5 44 6.18 4.2 19 22 1021.2 0 14.3 21.8 29.8 77.7 66.1 225.4
16 08:40 16.2 44 6.07 3.9 22 24 1021.2 0 14.1 21.7 29.6 77.0 65.0 221.7
16 08:30 15.9 45 6.09 4 19 26 1021.2 0 14.2 21.8 29.7 77.5 65.5 223.3
16 08:20 16 45 6.13 4.1 20 24 1021 0 14.3 21.8 29.8 77.7 65.9 224.7
16 08:10 16 45 6.13 4.1 19 20 1020.9 0 14.3 21.8 29.8 77.7 65.9 224.6
16 08:00 15.7 45 6.02 3.8 19 24 1020.7 0 14.0 21.7 29.5 77.0 64.8 220.9
16 07:50 15.7 45 6.02 3.8 17 19 1020.8 0 14.0 21.7 29.5 77.0 64.8 220.9
16 07:40 15.6 45 5.98 3.7 20 22 1020.7 0 13.9 21.7 29.4 76.7 64.4 219.5
16 07:30 15.5 45 5.95 3.6 20 24 1020.6 0 13.9 21.7 29.4 76.5 64.2 218.5
16 07:20 15.4 45 5.91 3.5 22 26 1020.6 0 13.8 21.6 29.3 76.2 63.8 217.2
16 07:10 15.3 46 6.01 3.8 19 20 1020.5 0 14.0 21.8 29.6 77.2 65.0 221.5
16 07:00 15.3 46 6.01 3.8 19 24 1020.4 0 14.0 21.8 29.6 77.2 65.0 221.5
16 06:50 15.2 47 6.1 4 15 17 1020.3 0 14.2 21.9 30.0 78.2 66.1 225.5
16 06:40 15.2 47 6.1 4 19 22 1020.2 0 14.2 21.9 30.0 78.2 66.1 225.5
16 06:30 15.1 47 6.06 3.9 17 24 1020.1 0 14.1 21.9 29.9 77.9 65.7 224.1
16 06:20 15.1 47 6.06 3.9 15 17 1020.1 0 14.1 21.9 29.9 77.9 65.7 224.1
16 06:10 15.1 47 6.06 3.9 19 22 1019.9 0 14.1 21.9 29.9 77.8 65.7 224.0
16 06:00 15.1 48 6.19 4.2 15 20 1019.9 0 14.4 22.1 30.3 79.1 67.3 229.5
16 05:50 15.1 48 6.19 4.2 13 15 1019.8 0 14.4 22.1 30.3 79.1 67.3 229.4
16 05:40 15.1 49 6.32 4.5 19 22 1019.7 0 14.7 22.3 30.8 80.3 68.8 234.9
16 05:30 15 51 6.54 5 13 19 1019.7 0 15.2 22.6 31.6 82.6 71.5 244.4
16 05:20 15 52 6.67 5.2 15 17 1019.6 0 15.4 22.8 32.1 83.8 73.1 249.9
16 05:10 15.1 52 6.71 5.3 15 19 1019.5 0 15.5 22.8 32.2 84.1 73.5 251.3
16 04:50 15.1 50 6.45 4.8 11 13 1019.4 0 15.0 22.4 31.3 81.6 70.3 240.3
16 04:40 15 49 6.28 4.4 17 17 1019.2 0 14.6 22.2 30.7 80.0 68.4 233.4
16 04:30 15.2 49 6.36 4.6 17 24 1019.1 0 14.8 22.3 30.9 80.6 69.2 236.1
16 04:20 15.1 49 6.32 4.5 17 20 1019.1 0 14.7 22.2 30.8 80.3 68.8 234.7
16 04:10 15.1 48 6.19 4.2 11 13 1019 0 14.4 22.1 30.3 79.0 67.2 229.3
16 04:00 15.1 48 6.19 4.2 17 22 1019 0 14.4 22.1 30.3 79.0 67.2 229.3
16 03:50 15.1 48 6.19 4.2 19 22 1019 0 14.4 22.1 30.3 79.0 67.2 229.3
16 03:40 15 48 6.15 4.1 13 17 1018.9 0 14.3 22.0 30.2 78.7 66.8 227.9
16 03:30 14.9 49 6.24 4.3 15 19 1019 0 14.5 22.2 30.6 79.7 68.0 231.9
16 03:20 14.9 48 6.12 4 17 20 1019 0 14.3 22.0 30.1 78.5 66.6 226.9
16 03:10 14.8 48 6.08 3.9 15 17 1019.1 0 14.2 22.0 30.0 78.3 66.2 225.6
16 03:00 14.6 47 5.88 3.4 19 30 1019.1 0 13.8 21.7 29.4 76.5 64.0 217.8
16 02:50 14.8 47 5.95 3.6 17 20 1019.2 0 13.9 21.8 29.6 77.0 64.6 220.2
16 02:40 15.1 48 6.19 4.2 17 20 1019.3 0 14.4 22.1 30.3 79.0 67.2 229.3

Last Refresh: 16-Jan-2021 19:37:24

Most of the information presented on this site is sourced from the Bureau of Meteorology.  Copyright in all material sourced from the Bureau of Meteorology resides with the Commonwealth of Australia.